createdAt,value
2018-04-06T00:02:30.326Z,72.61
2018-04-06T00:05:03.824Z,72.81
2018-04-06T00:07:37.404Z,73.24
2018-04-06T00:10:11.160Z,73.06
2018-04-06T00:12:44.902Z,73.33
2018-04-06T00:15:18.610Z,73.62
2018-04-06T00:17:52.271Z,73.79
2018-04-06T00:20:25.855Z,73.70
2018-04-06T00:22:59.478Z,73.75
2018-04-06T00:25:33.198Z,73.64
2018-04-06T00:28:06.827Z,72.94
2018-04-06T00:30:40.468Z,72.12
2018-04-06T00:33:14.135Z,71.27
2018-04-06T00:35:47.650Z,71.04
2018-04-06T00:38:21.349Z,70.95
2018-04-06T00:40:55.030Z,70.91
2018-04-06T00:43:28.853Z,71.03
2018-04-06T00:46:02.501Z,71.17
2018-04-06T00:48:36.056Z,71.34
2018-04-06T00:51:09.801Z,72.11
2018-04-06T00:53:48.392Z,72.42
2018-04-06T00:56:22.110Z,71.97
2018-04-06T00:58:55.720Z,71.86
2018-04-06T01:01:29.377Z,71.05
2018-04-06T01:04:03.121Z,71.08
2018-04-06T01:06:36.715Z,71.17
2018-04-06T01:09:10.248Z,71.21
2018-04-06T01:11:43.859Z,71.67
2018-04-06T01:14:17.535Z,71.65
2018-04-06T01:16:51.254Z,71.56
2018-04-06T01:19:24.910Z,71.40
2018-04-06T01:21:58.577Z,71.59
2018-04-06T01:24:32.245Z,71.52
2018-04-06T01:27:05.818Z,71.69
2018-04-06T01:29:39.705Z,71.39
2018-04-06T01:32:13.500Z,70.94
2018-04-06T01:34:47.095Z,71.17
2018-04-06T01:37:20.845Z,71.41
2018-04-06T01:39:54.464Z,71.74
2018-04-06T01:42:27.989Z,72.02
2018-04-06T01:45:01.678Z,71.90
2018-04-06T01:47:35.205Z,72.65
2018-04-06T01:50:08.833Z,72.01
2018-04-06T01:52:42.621Z,72.29
2018-04-06T01:55:16.430Z,72.86
2018-04-06T01:57:50.106Z,73.15
2018-04-06T02:00:23.814Z,73.05
2018-04-06T02:02:57.445Z,73.10
2018-04-06T02:05:31.110Z,72.68
2018-04-06T02:08:04.795Z,72.85
2018-04-06T02:10:38.385Z,72.66
2018-04-06T02:13:12.147Z,72.68
2018-04-06T02:15:45.954Z,73.25
2018-04-06T02:18:19.551Z,73.24
2018-04-06T02:20:53.196Z,73.30
2018-04-06T02:23:26.901Z,73.74
2018-04-06T02:26:00.535Z,74.15
2018-04-06T02:28:34.039Z,74.43
2018-04-06T02:31:07.609Z,74.50
2018-04-06T02:33:41.294Z,74.48
2018-04-06T02:36:14.926Z,75.14
2018-04-06T02:38:48.684Z,75.57
2018-04-06T02:41:22.310Z,75.78
2018-04-06T02:43:56.082Z,76.14
2018-04-06T02:46:29.864Z,75.96
2018-04-06T02:49:03.636Z,76.20
2018-04-06T02:51:37.379Z,75.91
2018-04-06T02:54:11.124Z,76.13
2018-04-06T02:56:44.892Z,76.37
2018-04-06T02:59:18.687Z,75.86
2018-04-06T03:01:52.210Z,75.66
2018-04-06T03:04:25.825Z,76.10
2018-04-06T03:06:59.492Z,76.25
2018-04-06T03:09:33.039Z,76.09
2018-04-06T03:12:06.673Z,75.99
2018-04-06T03:14:40.234Z,76.21
2018-04-06T03:17:13.907Z,76.39
2018-04-06T03:19:47.469Z,76.78
2018-04-06T03:22:21.059Z,77.12
2018-04-06T03:24:54.769Z,76.86
2018-04-06T03:27:28.453Z,76.85
2018-04-06T03:30:02.112Z,76.67
2018-04-06T03:32:35.885Z,76.85
2018-04-06T03:35:09.675Z,76.45
2018-04-06T03:37:43.321Z,76.57
2018-04-06T03:40:17.139Z,76.62
2018-04-06T03:42:50.859Z,76.71
2018-04-06T03:45:24.395Z,76.69
2018-04-06T03:47:58.048Z,76.55
2018-04-06T03:50:31.768Z,76.66
2018-04-06T03:53:05.458Z,77.15
2018-04-06T03:55:39.091Z,77.42
2018-04-06T03:58:12.759Z,76.89
2018-04-06T04:00:46.441Z,76.64
2018-04-06T04:03:20.009Z,76.50
2018-04-06T04:05:53.605Z,76.87
2018-04-06T04:08:27.373Z,76.69
2018-04-06T04:11:01.111Z,76.92
2018-04-06T04:13:34.766Z,77.07
2018-04-06T04:16:08.494Z,76.99
2018-04-06T04:18:42.313Z,76.90
2018-04-06T04:21:16.010Z,77.22
2018-04-06T04:23:49.502Z,77.23
2018-04-06T04:26:23.185Z,77.33
2018-04-06T04:28:56.842Z,76.83
2018-04-06T04:31:30.659Z,76.69
2018-04-06T04:34:04.357Z,76.37
2018-04-06T04:36:38.123Z,76.69
2018-04-06T04:39:11.722Z,77.18
2018-04-06T04:41:45.476Z,77.06
2018-04-06T04:44:19.132Z,76.97
2018-04-06T04:46:52.834Z,77.19
2018-04-06T04:49:26.522Z,77.44
2018-04-06T04:52:00.152Z,77.66
2018-04-06T04:54:33.771Z,77.41
2018-04-06T04:57:07.338Z,77.00
2018-04-06T04:59:41.056Z,76.85
2018-04-06T05:02:14.716Z,76.83
2018-04-06T05:04:48.461Z,76.76
2018-04-06T05:07:22.071Z,76.80
2018-04-06T05:09:55.667Z,76.85
2018-04-06T05:12:29.291Z,76.96
2018-04-06T05:15:02.854Z,76.57
2018-04-06T05:17:36.592Z,76.49
2018-04-06T05:20:10.318Z,76.48
2018-04-06T05:22:43.924Z,76.52
2018-04-06T05:25:17.586Z,76.14
2018-04-06T05:27:51.137Z,76.13
2018-04-06T05:30:24.748Z,76.11
2018-04-06T05:32:58.290Z,75.86
2018-04-06T05:35:32.111Z,75.67
2018-04-06T05:38:05.713Z,75.46
2018-04-06T05:40:39.394Z,75.35
2018-04-06T05:43:12.932Z,75.16
2018-04-06T05:45:46.747Z,74.80
2018-04-06T05:48:20.443Z,73.96
2018-04-06T05:50:54.298Z,73.82
2018-04-06T05:53:28.055Z,73.44
2018-04-06T05:56:01.903Z,73.13
2018-04-06T05:58:35.556Z,72.42
2018-04-06T06:01:09.338Z,72.19
2018-04-06T06:03:43.111Z,69.32
2018-04-06T06:06:16.697Z,65.55
2018-04-06T06:08:50.416Z,61.40
2018-04-06T06:11:24.030Z,59.69
2018-04-06T06:13:57.629Z,59.68
2018-04-06T06:16:31.222Z,55.31
2018-04-06T06:19:04.877Z,56.11
2018-04-06T06:21:38.708Z,53.96
2018-04-06T06:24:12.382Z,51.13
2018-04-06T06:26:46.107Z,50.74
2018-04-06T06:29:19.854Z,49.89
2018-04-06T06:31:53.475Z,49.54
2018-04-06T06:34:27.078Z,49.52
2018-04-06T06:40:02.272Z,47.01
2018-04-06T06:42:36.185Z,45.07
2018-04-06T06:45:09.897Z,44.17
2018-04-06T06:47:43.664Z,43.06
2018-04-06T06:50:17.272Z,42.27
2018-04-06T06:52:51.070Z,42.26
2018-04-06T06:55:24.885Z,41.50
2018-04-06T06:57:58.508Z,41.84
2018-04-06T07:00:32.175Z,40.14
2018-04-06T07:03:05.910Z,40.77
2018-04-06T07:05:39.600Z,40.52
2018-04-06T07:08:13.242Z,40.29
2018-04-06T07:10:46.963Z,40.21
2018-04-06T07:13:20.972Z,39.83
2018-04-06T07:15:54.639Z,40.16
2018-04-06T07:18:28.259Z,38.96
2018-04-06T07:21:02.025Z,38.84
2018-04-06T07:23:35.785Z,36.94
2018-04-06T07:26:09.492Z,37.75
2018-04-06T07:28:43.231Z,36.67
2018-04-06T07:31:16.838Z,37.28
2018-04-06T07:33:50.530Z,34.91
2018-04-06T07:36:24.220Z,35.03
2018-04-06T07:38:57.908Z,36.53
2018-04-06T07:41:31.498Z,36.08
2018-04-06T07:44:05.228Z,33.72
2018-04-06T07:46:38.887Z,34.84
2018-04-06T07:49:12.480Z,34.77
2018-04-06T07:51:46.052Z,34.41
2018-04-06T07:54:19.712Z,34.51
2018-04-06T07:56:53.591Z,33.37
2018-04-06T07:59:27.199Z,33.61
2018-04-06T08:02:00.772Z,34.17
2018-04-06T08:04:34.343Z,35.35
2018-04-06T08:07:08.140Z,34.58
2018-04-06T08:09:41.895Z,34.98
2018-04-06T08:12:15.540Z,34.46
2018-04-06T08:14:49.205Z,32.74
2018-04-06T08:17:22.953Z,32.78
2018-04-06T08:19:56.543Z,32.21
2018-04-06T08:22:30.123Z,32.39
2018-04-06T08:25:03.840Z,32.54
2018-04-06T08:27:37.631Z,31.76
2018-04-06T08:30:11.336Z,33.76
2018-04-06T08:32:45.070Z,31.60
2018-04-06T08:35:18.743Z,31.17
2018-04-06T08:37:52.506Z,30.37
2018-04-06T08:40:26.167Z,29.92
2018-04-06T08:42:59.898Z,29.70
2018-04-06T08:45:33.645Z,27.98
2018-04-06T08:48:07.365Z,29.42
2018-04-06T08:50:41.022Z,30.47
2018-04-06T08:53:14.775Z,29.26
2018-04-06T08:55:48.514Z,28.26
2018-04-06T08:58:22.289Z,28.52
2018-04-06T09:00:55.828Z,27.46
2018-04-06T09:03:29.510Z,26.07
2018-04-06T09:06:03.134Z,25.46
2018-04-06T09:08:36.932Z,24.78
2018-04-06T09:11:10.615Z,24.35
2018-04-06T09:13:44.173Z,24.27
2018-04-06T09:16:17.829Z,23.63
2018-04-06T09:18:51.489Z,24.55
2018-04-06T09:21:25.190Z,22.86
2018-04-06T09:23:58.784Z,22.39
2018-04-06T09:26:32.540Z,23.01
2018-04-06T09:29:06.312Z,23.11
2018-04-06T09:31:39.876Z,23.59
2018-04-06T09:34:13.658Z,25.30
2018-04-06T09:36:47.235Z,25.95
2018-04-06T09:39:20.959Z,27.13
2018-04-06T09:41:54.719Z,28.73
2018-04-06T09:44:28.433Z,29.69
2018-04-06T09:47:02.030Z,30.13
2018-04-06T09:49:35.754Z,30.93
2018-04-06T09:52:09.454Z,32.21
2018-04-06T09:54:43.075Z,32.44
2018-04-06T09:57:16.707Z,34.35
2018-04-06T09:59:50.317Z,34.79
2018-04-06T10:02:23.990Z,33.69
2018-04-06T10:04:57.592Z,31.94
2018-04-06T10:07:31.326Z,32.62
2018-04-06T10:10:05.338Z,33.36
2018-04-06T10:12:38.954Z,33.22
2018-04-06T10:15:12.718Z,33.21
2018-04-06T10:17:46.451Z,33.40
2018-04-06T10:20:20.194Z,32.55
2018-04-06T10:22:53.906Z,32.19
2018-04-06T10:25:27.692Z,33.46
2018-04-06T10:28:01.362Z,33.43
2018-04-06T10:30:35.141Z,31.00
2018-04-06T10:33:08.663Z,30.22
2018-04-06T10:35:42.385Z,29.47
2018-04-06T10:38:16.117Z,27.16
2018-04-06T10:40:49.809Z,25.68
2018-04-06T10:43:23.498Z,24.13
2018-04-06T10:45:57.082Z,23.73
2018-04-06T10:48:30.855Z,24.95
2018-04-06T10:51:04.607Z,22.02
2018-04-06T10:53:38.164Z,20.91
2018-04-06T10:56:11.884Z,20.95
2018-04-06T10:58:45.623Z,20.15
2018-04-06T11:01:19.326Z,20.43
2018-04-06T11:03:53.072Z,19.22
2018-04-06T11:06:26.879Z,18.69
2018-04-06T11:09:00.679Z,17.49
2018-04-06T11:11:34.449Z,20.07
2018-04-06T11:14:08.030Z,19.40
2018-04-06T11:16:41.811Z,20.02
2018-04-06T11:19:15.495Z,20.64
2018-04-06T11:21:49.212Z,20.32
2018-04-06T11:24:22.839Z,20.11
2018-04-06T11:26:56.400Z,20.38
2018-04-06T11:29:30.007Z,20.59
2018-04-06T11:32:03.738Z,20.74
2018-04-06T11:34:37.408Z,21.19
2018-04-06T11:37:11.492Z,22.64
2018-04-06T11:39:45.709Z,21.54
2018-04-06T11:42:19.504Z,22.50
2018-04-06T11:44:53.232Z,23.23
2018-04-06T11:47:26.819Z,22.58
2018-04-06T11:50:00.375Z,23.56
2018-04-06T11:52:34.005Z,24.07
2018-04-06T11:55:07.813Z,23.50
2018-04-06T11:57:41.609Z,24.06
2018-04-06T12:00:15.278Z,23.74
2018-04-06T12:02:48.998Z,24.94
2018-04-06T12:05:22.581Z,24.96
2018-04-06T12:07:56.333Z,25.23
2018-04-06T12:10:29.906Z,24.73
2018-04-06T12:13:03.723Z,26.38
2018-04-06T12:15:37.493Z,23.94
2018-04-06T12:18:11.278Z,23.19
2018-04-06T12:20:45.039Z,23.63
2018-04-06T12:23:18.719Z,23.80
2018-04-06T12:25:52.393Z,24.04
2018-04-06T12:28:26.174Z,24.37
2018-04-06T12:30:59.867Z,24.67
2018-04-06T12:33:33.579Z,24.81
2018-04-06T12:36:07.423Z,24.62
2018-04-06T12:38:41.127Z,25.48
2018-04-06T12:41:14.784Z,25.71
2018-04-06T12:43:48.476Z,25.93
2018-04-06T12:46:22.329Z,25.71
2018-04-06T12:48:56.100Z,25.41
2018-04-06T12:51:29.702Z,25.39
2018-04-06T12:54:03.266Z,25.83
2018-04-06T12:56:36.990Z,26.13
2018-04-06T12:59:10.605Z,26.01
2018-04-06T13:01:44.292Z,25.76
2018-04-06T13:04:18.011Z,26.03
2018-04-06T13:06:52.452Z,24.97
2018-04-06T13:09:26.244Z,26.05
2018-04-06T13:11:59.891Z,25.86
2018-04-06T13:14:33.523Z,25.00
2018-04-06T13:17:07.119Z,24.20
2018-04-06T13:19:40.855Z,25.12
2018-04-06T13:22:14.461Z,24.58
2018-04-06T13:24:48.178Z,24.07
2018-04-06T13:27:21.831Z,23.83
2018-04-06T13:29:55.499Z,24.84
2018-04-06T13:32:29.162Z,23.62
2018-04-06T13:35:02.921Z,23.66
2018-04-06T13:37:36.631Z,24.48
2018-04-06T13:40:10.432Z,24.98
2018-04-06T13:42:44.071Z,23.62
2018-04-06T13:45:17.876Z,25.24
2018-04-06T13:47:51.474Z,24.15
2018-04-06T13:50:25.315Z,23.72
2018-04-06T13:52:58.956Z,24.02
2018-04-06T13:55:32.741Z,24.54
2018-04-06T13:58:06.371Z,24.33
2018-04-06T14:00:40.116Z,24.59
2018-04-06T14:03:13.739Z,24.87
2018-04-06T14:05:47.432Z,24.86
2018-04-06T14:08:21.136Z,24.55
2018-04-06T14:10:54.768Z,25.12
2018-04-06T14:13:28.448Z,24.49
2018-04-06T14:16:02.287Z,24.21
2018-04-06T14:18:36.179Z,24.33
2018-04-06T14:21:09.921Z,24.34
2018-04-06T14:23:43.704Z,24.70
2018-04-06T14:26:17.503Z,23.49
2018-04-06T14:28:51.213Z,22.92
2018-04-06T14:31:24.944Z,21.45
2018-04-06T14:33:58.812Z,20.51
2018-04-06T14:36:32.454Z,20.72
2018-04-06T14:39:06.986Z,20.09
2018-04-06T14:41:40.695Z,18.25
2018-04-06T14:44:14.450Z,17.70
2018-04-06T14:46:48.286Z,16.86
2018-04-06T14:49:22.042Z,16.80
2018-04-06T14:51:55.689Z,15.79
2018-04-06T14:54:29.347Z,15.53
2018-04-06T14:57:03.158Z,15.96
2018-04-06T14:59:36.846Z,16.46
2018-04-06T15:02:10.682Z,17.02
2018-04-06T15:04:44.387Z,16.91
2018-04-06T15:07:18.183Z,16.09
2018-04-06T15:09:51.772Z,16.20
2018-04-06T15:12:25.459Z,16.98
2018-04-06T15:14:59.173Z,16.86
2018-04-06T15:17:33.044Z,16.87
2018-04-06T15:20:06.666Z,16.18
2018-04-06T15:22:40.295Z,16.34
2018-04-06T15:25:14.694Z,16.25
2018-04-06T15:27:48.403Z,17.04
2018-04-06T15:30:22.076Z,17.61
2018-04-06T15:32:55.941Z,17.47
2018-04-06T15:35:29.651Z,17.93
2018-04-06T15:38:03.394Z,17.93
2018-04-06T15:40:37.100Z,17.84
2018-04-06T15:43:10.752Z,18.31
2018-04-06T15:45:44.456Z,17.69
2018-04-06T15:48:18.285Z,17.83
2018-04-06T15:50:51.946Z,17.75
2018-04-06T15:53:25.575Z,17.87
2018-04-06T15:55:59.207Z,18.18
2018-04-06T15:58:32.878Z,17.82
2018-04-06T16:01:06.592Z,17.98
2018-04-06T16:03:40.369Z,18.72
2018-04-06T16:06:14.066Z,19.16
2018-04-06T16:08:47.684Z,19.93
2018-04-06T16:11:21.235Z,19.58
2018-04-06T16:13:54.900Z,20.13
2018-04-06T16:16:28.695Z,20.92
2018-04-06T16:19:02.388Z,21.29
2018-04-06T16:21:36.140Z,22.11
2018-04-06T16:24:09.862Z,22.56
2018-04-06T16:26:43.547Z,23.22
2018-04-06T16:29:17.167Z,24.12
2018-04-06T16:31:50.834Z,24.34
2018-04-06T16:34:24.570Z,24.83
2018-04-06T16:36:58.177Z,24.85
2018-04-06T16:39:31.780Z,24.91
2018-04-06T16:42:05.463Z,24.98
2018-04-06T16:44:39.299Z,25.34
2018-04-06T16:47:13.034Z,25.52
2018-04-06T16:49:46.657Z,25.92
2018-04-06T16:52:20.425Z,26.26
2018-04-06T16:54:54.238Z,26.02
2018-04-06T16:57:27.795Z,26.52
2018-04-06T17:00:01.522Z,26.79
2018-04-06T17:02:35.201Z,26.70
2018-04-06T17:05:09.100Z,26.95
2018-04-06T17:07:42.702Z,26.86
2018-04-06T17:10:16.540Z,27.62
2018-04-06T17:12:50.300Z,27.15
2018-04-06T17:15:23.878Z,28.11
2018-04-06T17:17:57.609Z,27.17
2018-04-06T17:20:31.541Z,27.90
2018-04-06T17:23:05.235Z,27.47
2018-04-06T17:25:39.036Z,27.71
2018-04-06T17:28:12.642Z,28.04
2018-04-06T17:30:46.282Z,28.08
2018-04-06T17:33:19.935Z,28.65
2018-04-06T17:35:53.697Z,28.90
2018-04-06T17:38:27.414Z,29.07
2018-04-06T17:41:01.080Z,29.45
2018-04-06T17:43:34.841Z,29.48
2018-04-06T17:46:08.549Z,29.69
2018-04-06T17:48:42.282Z,30.37
2018-04-06T17:51:16.036Z,30.38
2018-04-06T17:53:49.670Z,30.34
2018-04-06T17:56:23.471Z,30.16
2018-04-06T17:58:57.176Z,30.88
2018-04-06T18:01:31.043Z,30.75
2018-04-06T18:04:04.835Z,30.91
2018-04-06T18:06:38.538Z,31.58
2018-04-06T18:09:12.631Z,31.66
2018-04-06T18:11:46.352Z,31.46
2018-04-06T18:14:20.135Z,31.59
2018-04-06T18:16:53.757Z,31.78
2018-04-06T18:19:27.443Z,32.07
2018-04-06T18:22:01.085Z,31.87
2018-04-06T18:24:34.897Z,32.10
2018-04-06T18:27:08.708Z,32.39
2018-04-06T18:29:42.389Z,32.79
2018-04-06T18:32:16.180Z,32.96
2018-04-06T18:34:49.987Z,33.10
2018-04-06T18:37:23.707Z,32.91
2018-04-06T18:39:57.372Z,33.01
2018-04-06T18:42:31.076Z,33.01
2018-04-06T18:45:04.842Z,33.29
2018-04-06T18:47:38.562Z,33.40
2018-04-06T18:50:12.207Z,33.43
2018-04-06T18:52:46.040Z,33.86
2018-04-06T18:55:19.964Z,33.91
2018-04-06T18:57:53.590Z,34.06
2018-04-06T19:00:27.138Z,33.91
2018-04-06T19:03:00.894Z,33.96
2018-04-06T19:05:34.612Z,34.22
2018-04-06T19:08:08.172Z,34.34
2018-04-06T19:10:41.912Z,34.44
2018-04-06T19:13:15.666Z,34.34
2018-04-06T19:15:49.385Z,34.42
2018-04-06T19:18:23.533Z,34.72
2018-04-06T19:20:57.349Z,35.03
2018-04-06T19:23:31.123Z,34.74
2018-04-06T19:26:04.687Z,34.86
2018-04-06T19:28:38.349Z,35.23
2018-04-06T19:31:12.154Z,35.05
2018-04-06T19:33:45.830Z,35.20
2018-04-06T19:36:19.566Z,35.34
2018-04-06T19:38:53.138Z,35.63
2018-04-06T19:41:26.823Z,35.43
2018-04-06T19:44:00.772Z,35.54
2018-04-06T19:46:34.441Z,35.73
2018-04-06T19:49:08.005Z,35.74
2018-04-06T19:51:41.683Z,35.81
2018-04-06T19:54:15.334Z,36.19
2018-04-06T19:56:48.934Z,36.12
2018-04-06T19:59:22.692Z,35.95
2018-04-06T20:01:56.418Z,36.18
2018-04-06T20:04:30.131Z,36.46
2018-04-06T20:07:04.075Z,36.20
2018-04-06T20:09:37.848Z,36.34
2018-04-06T20:12:11.594Z,36.04
2018-04-06T20:14:45.423Z,36.28
2018-04-06T20:17:19.107Z,36.27
2018-04-06T20:19:52.966Z,36.85
2018-04-06T20:22:26.821Z,36.68
2018-04-06T20:25:00.454Z,36.91
2018-04-06T20:27:34.146Z,36.99
2018-04-06T20:30:07.904Z,37.01
2018-04-06T20:32:41.596Z,36.89
2018-04-06T20:35:15.324Z,36.76
2018-04-06T20:37:49.051Z,36.79
2018-04-06T20:40:22.840Z,37.05
2018-04-06T20:42:56.370Z,37.07
2018-04-06T20:45:30.173Z,37.20
2018-04-06T20:48:03.903Z,37.39
2018-04-06T20:50:37.574Z,37.59
2018-04-06T20:53:11.584Z,37.59
2018-04-06T20:55:45.263Z,37.48
2018-04-06T20:58:18.861Z,37.81
2018-04-06T21:00:52.681Z,37.81
2018-04-06T21:03:26.358Z,38.03
2018-04-06T21:05:59.989Z,37.96
2018-04-06T21:08:33.742Z,38.16
2018-04-06T21:11:07.404Z,37.96
2018-04-06T21:13:41.262Z,38.09
2018-04-06T21:16:14.915Z,38.41
2018-04-06T21:18:48.672Z,38.63
2018-04-06T21:21:22.319Z,38.76
2018-04-06T21:23:56.138Z,38.95
2018-04-06T21:26:29.959Z,38.83
2018-04-06T21:29:03.702Z,39.00
2018-04-06T21:31:37.659Z,39.40
2018-04-06T21:34:11.318Z,39.77
2018-04-06T21:36:45.122Z,39.52
2018-04-06T21:39:18.890Z,39.54
2018-04-06T21:41:52.454Z,39.32
2018-04-06T21:44:26.139Z,39.91
2018-04-06T21:46:59.754Z,39.62
2018-04-06T21:49:33.283Z,39.86
2018-04-06T21:52:07.046Z,39.76
2018-04-06T21:54:40.831Z,39.74
2018-04-06T21:57:14.502Z,40.13
2018-04-06T21:59:48.512Z,40.21
2018-04-06T22:02:22.104Z,40.36
2018-04-06T22:04:55.881Z,40.12
2018-04-06T22:07:29.561Z,40.27
2018-04-06T22:10:03.379Z,40.80
2018-04-06T22:12:36.994Z,40.90
2018-04-06T22:15:10.669Z,40.66
2018-04-06T22:17:44.370Z,40.62
2018-04-06T22:20:18.198Z,40.71
2018-04-06T22:22:51.971Z,41.16
2018-04-06T22:25:25.610Z,41.01
2018-04-06T22:27:59.456Z,41.02
2018-04-06T22:30:33.218Z,41.15
2018-04-06T22:33:06.905Z,41.26
2018-04-06T22:35:40.632Z,40.94
2018-04-06T22:38:14.314Z,41.06
2018-04-06T22:40:47.878Z,41.17
2018-04-06T22:43:21.663Z,41.17
2018-04-06T22:45:55.712Z,41.37
2018-04-06T22:48:29.367Z,41.00
2018-04-06T22:51:03.167Z,41.06
2018-04-06T22:53:36.714Z,41.17
2018-04-06T22:56:10.564Z,41.15
2018-04-06T22:58:44.258Z,41.44
2018-04-06T23:01:17.991Z,41.37
2018-04-06T23:03:51.576Z,41.62
2018-04-06T23:06:25.262Z,42.05
2018-04-06T23:08:58.980Z,41.94
2018-04-06T23:11:32.531Z,42.02
2018-04-06T23:14:06.294Z,42.19
2018-04-06T23:16:39.860Z,42.05
2018-04-06T23:19:13.582Z,42.18
2018-04-06T23:21:47.235Z,42.11
2018-04-06T23:24:20.963Z,41.97
2018-04-06T23:26:54.924Z,42.12
2018-04-06T23:29:28.474Z,42.09
2018-04-06T23:32:02.195Z,42.21
2018-04-06T23:34:35.850Z,42.36
2018-04-06T23:37:09.663Z,42.50
2018-04-06T23:39:43.308Z,42.61
2018-04-06T23:42:16.982Z,42.57
2018-04-06T23:44:50.695Z,42.69
2018-04-06T23:47:24.371Z,42.86
2018-04-06T23:49:58.068Z,42.67
2018-04-06T23:52:31.854Z,42.58
2018-04-06T23:55:05.523Z,42.79
2018-04-06T23:57:39.217Z,42.62
